sensor_id;sensor_type;location;lat;lon;timestamp;temperature;humidity
71155;DHT22;59375;53.216;5.728;2022-11-12T00:02:11;8.20;99.90
71155;DHT22;59375;53.216;5.728;2022-11-12T00:04:36;8.10;99.90
71155;DHT22;59375;53.216;5.728;2022-11-12T00:07:02;8.10;99.90
71155;DHT22;59375;53.216;5.728;2022-11-12T00:09:27;8.10;99.90
71155;DHT22;59375;53.216;5.728;2022-11-12T00:11:53;8.10;99.90
71155;DHT22;59375;53.216;5.728;2022-11-12T00:14:18;8.10;99.90
71155;DHT22;59375;53.216;5.728;2022-11-12T00:16:44;8.10;99.90
71155;DHT22;59375;53.216;5.728;2022-11-12T00:19:09;8.10;99.90
71155;DHT22;59375;53.216;5.728;2022-11-12T00:21:34;8.10;99.90
71155;DHT22;59375;53.216;5.728;2022-11-12T00:24:00;8.00;99.90
71155;DHT22;59375;53.216;5.728;2022-11-12T00:26:25;8.10;99.90
71155;DHT22;59375;53.216;5.728;2022-11-12T00:28:51;8.10;99.90
71155;DHT22;59375;53.216;5.728;2022-11-12T00:31:16;8.00;99.90
71155;DHT22;59375;53.216;5.728;2022-11-12T00:33:42;8.10;99.90
71155;DHT22;59375;53.216;5.728;2022-11-12T00:36:07;8.10;99.90
71155;DHT22;59375;53.216;5.728;2022-11-12T00:38:33;8.00;99.90
71155;DHT22;59375;53.216;5.728;2022-11-12T00:40:59;8.00;99.90
71155;DHT22;59375;53.216;5.728;2022-11-12T00:43:24;8.00;99.90
71155;DHT22;59375;53.216;5.728;2022-11-12T00:45:49;8.00;99.90
71155;DHT22;59375;53.216;5.728;2022-11-12T00:48:15;8.00;99.90
71155;DHT22;59375;53.216;5.728;2022-11-12T00:50:40;8.00;99.90
71155;DHT22;59375;53.216;5.728;2022-11-12T00:53:06;7.90;99.90
71155;DHT22;59375;53.216;5.728;2022-11-12T00:55:31;7.90;99.90
71155;DHT22;59375;53.216;5.728;2022-11-12T00:57:57;7.90;99.90
71155;DHT22;59375;53.216;5.728;2022-11-12T01:00:23;7.90;99.90
71155;DHT22;59375;53.216;5.728;2022-11-12T01:02:49;7.90;99.90
71155;DHT22;59375;53.216;5.728;2022-11-12T01:05:14;7.70;99.90
71155;DHT22;59375;53.216;5.728;2022-11-12T01:07:40;7.70;99.90
71155;DHT22;59375;53.216;5.728;2022-11-12T01:10:06;7.70;99.90
71155;DHT22;59375;53.216;5.728;2022-11-12T01:12:31;7.70;99.90
71155;DHT22;59375;53.216;5.728;2022-11-12T01:14:57;7.60;99.90
71155;DHT22;59375;53.216;5.728;2022-11-12T01:17:22;7.70;99.90
71155;DHT22;59375;53.216;5.728;2022-11-12T01:19:48;7.70;99.90
71155;DHT22;59375;53.216;5.728;2022-11-12T01:22:14;7.70;99.90
71155;DHT22;59375;53.216;5.728;2022-11-12T01:24:39;7.70;99.90
71155;DHT22;59375;53.216;5.728;2022-11-12T01:27:05;7.70;99.90
71155;DHT22;59375;53.216;5.728;2022-11-12T01:29:30;7.70;99.90
71155;DHT22;59375;53.216;5.728;2022-11-12T01:31:56;7.70;99.90
71155;DHT22;59375;53.216;5.728;2022-11-12T01:34:21;7.70;99.90
71155;DHT22;59375;53.216;5.728;2022-11-12T01:36:46;7.70;99.90
71155;DHT22;59375;53.216;5.728;2022-11-12T01:39:12;7.70;99.90
71155;DHT22;59375;53.216;5.728;2022-11-12T01:41:38;7.70;99.90
71155;DHT22;59375;53.216;5.728;2022-11-12T01:46:44;7.60;99.90
71155;DHT22;59375;53.216;5.728;2022-11-12T01:49:13;7.60;99.90
71155;DHT22;59375;53.216;5.728;2022-11-12T01:51:43;7.60;99.90
71155;DHT22;59375;53.216;5.728;2022-11-12T01:54:12;7.60;99.90
71155;DHT22;59375;53.216;5.728;2022-11-12T01:56:38;7.70;99.90
71155;DHT22;59375;53.216;5.728;2022-11-12T01:59:06;7.70;99.90
71155;DHT22;59375;53.216;5.728;2022-11-12T02:01:32;7.70;99.90
71155;DHT22;59375;53.216;5.728;2022-11-12T02:03:58;7.70;99.90
71155;DHT22;59375;53.216;5.728;2022-11-12T02:06:24;7.70;99.90
71155;DHT22;59375;53.216;5.728;2022-11-12T02:08:49;7.80;99.90
71155;DHT22;59375;53.216;5.728;2022-11-12T02:11:16;7.80;99.90
71155;DHT22;59375;53.216;5.728;2022-11-12T02:13:42;7.90;99.90
71155;DHT22;59375;53.216;5.728;2022-11-12T02:18:50;7.90;99.90
71155;DHT22;59375;53.216;5.728;2022-11-12T02:21:23;8.00;99.90
71155;DHT22;59375;53.216;5.728;2022-11-12T02:26:33;8.00;99.90
71155;DHT22;59375;53.216;5.728;2022-11-12T02:28:59;8.00;99.90
71155;DHT22;59375;53.216;5.728;2022-11-12T02:31:25;8.10;99.90
71155;DHT22;59375;53.216;5.728;2022-11-12T02:33:50;8.10;99.90
71155;DHT22;59375;53.216;5.728;2022-11-12T02:36:16;8.10;99.90
71155;DHT22;59375;53.216;5.728;2022-11-12T02:38:41;8.10;99.90
71155;DHT22;59375;53.216;5.728;2022-11-12T02:41:07;8.20;99.90
71155;DHT22;59375;53.216;5.728;2022-11-12T02:43:32;8.20;99.90
71155;DHT22;59375;53.216;5.728;2022-11-12T02:45:58;8.20;99.90
71155;DHT22;59375;53.216;5.728;2022-11-12T02:48:23;8.20;99.90
71155;DHT22;59375;53.216;5.728;2022-11-12T02:50:49;8.20;99.90
71155;DHT22;59375;53.216;5.728;2022-11-12T02:53:14;8.20;99.90
71155;DHT22;59375;53.216;5.728;2022-11-12T02:55:41;8.20;99.90
71155;DHT22;59375;53.216;5.728;2022-11-12T02:58:06;8.30;99.90
71155;DHT22;59375;53.216;5.728;2022-11-12T03:00:32;8.20;99.90
71155;DHT22;59375;53.216;5.728;2022-11-12T03:02:57;8.20;99.90
71155;DHT22;59375;53.216;5.728;2022-11-12T03:05:27;8.20;99.90
71155;DHT22;59375;53.216;5.728;2022-11-12T03:08:00;8.20;99.90
71155;DHT22;59375;53.216;5.728;2022-11-12T03:10:26;8.20;99.90
71155;DHT22;59375;53.216;5.728;2022-11-12T03:12:52;8.20;99.90
71155;DHT22;59375;53.216;5.728;2022-11-12T03:15:17;8.20;99.90
71155;DHT22;59375;53.216;5.728;2022-11-12T03:17:42;8.20;99.90
71155;DHT22;59375;53.216;5.728;2022-11-12T03:20:09;8.30;99.90
71155;DHT22;59375;53.216;5.728;2022-11-12T03:22:34;8.20;99.90
71155;DHT22;59375;53.216;5.728;2022-11-12T03:25:00;8.30;99.90
71155;DHT22;59375;53.216;5.728;2022-11-12T03:27:25;8.30;99.90
71155;DHT22;59375;53.216;5.728;2022-11-12T03:29:51;8.30;99.90
71155;DHT22;59375;53.216;5.728;2022-11-12T03:32:16;8.30;99.90
71155;DHT22;59375;53.216;5.728;2022-11-12T03:34:42;8.30;99.90
71155;DHT22;59375;53.216;5.728;2022-11-12T03:37:07;8.30;99.90
71155;DHT22;59375;53.216;5.728;2022-11-12T03:39:34;8.40;99.90
71155;DHT22;59375;53.216;5.728;2022-11-12T03:41:59;8.30;99.90
71155;DHT22;59375;53.216;5.728;2022-11-12T03:44:25;8.30;99.90
71155;DHT22;59375;53.216;5.728;2022-11-12T03:46:50;8.30;99.90
71155;DHT22;59375;53.216;5.728;2022-11-12T03:49:15;8.30;99.90
71155;DHT22;59375;53.216;5.728;2022-11-12T03:51:41;8.30;99.90
71155;DHT22;59375;53.216;5.728;2022-11-12T03:54:06;8.30;99.90
71155;DHT22;59375;53.216;5.728;2022-11-12T03:56:32;8.30;99.90
71155;DHT22;59375;53.216;5.728;2022-11-12T03:58:57;8.30;99.90
71155;DHT22;59375;53.216;5.728;2022-11-12T04:01:23;8.30;99.90
71155;DHT22;59375;53.216;5.728;2022-11-12T04:03:48;8.30;99.90
71155;DHT22;59375;53.216;5.728;2022-11-12T04:06:14;8.30;99.90
71155;DHT22;59375;53.216;5.728;2022-11-12T04:08:58;8.30;99.90
71155;DHT22;59375;53.216;5.728;2022-11-12T04:11:23;8.30;99.90
71155;DHT22;59375;53.216;5.728;2022-11-12T04:13:49;8.20;99.90
71155;DHT22;59375;53.216;5.728;2022-11-12T04:16:18;8.30;99.90
71155;DHT22;59375;53.216;5.728;2022-11-12T04:19:16;8.30;99.90
71155;DHT22;59375;53.216;5.728;2022-11-12T04:22:05;8.30;99.90
71155;DHT22;59375;53.216;5.728;2022-11-12T04:24:40;8.30;99.90
71155;DHT22;59375;53.216;5.728;2022-11-12T04:27:29;8.30;99.90
71155;DHT22;59375;53.216;5.728;2022-11-12T04:29:55;8.40;99.90
71155;DHT22;59375;53.216;5.728;2022-11-12T04:32:40;8.40;99.90
71155;DHT22;59375;53.216;5.728;2022-11-12T04:35:06;8.40;99.90
71155;DHT22;59375;53.216;5.728;2022-11-12T04:37:32;8.40;99.90
71155;DHT22;59375;53.216;5.728;2022-11-12T04:40:15;8.40;99.90
71155;DHT22;59375;53.216;5.728;2022-11-12T04:43:00;8.40;99.90
71155;DHT22;59375;53.216;5.728;2022-11-12T04:45:45;8.50;99.90
71155;DHT22;59375;53.216;5.728;2022-11-12T04:48:11;8.50;99.90
71155;DHT22;59375;53.216;5.728;2022-11-12T04:50:37;8.50;99.90
71155;DHT22;59375;53.216;5.728;2022-11-12T04:53:03;8.50;99.90
71155;DHT22;59375;53.216;5.728;2022-11-12T04:55:28;8.50;99.90
71155;DHT22;59375;53.216;5.728;2022-11-12T04:57:53;8.50;99.90
71155;DHT22;59375;53.216;5.728;2022-11-12T05:00:19;8.50;99.90
71155;DHT22;59375;53.216;5.728;2022-11-12T05:02:45;8.50;99.90
71155;DHT22;59375;53.216;5.728;2022-11-12T05:05:10;8.60;99.90
71155;DHT22;59375;53.216;5.728;2022-11-12T05:07:35;8.60;99.90
71155;DHT22;59375;53.216;5.728;2022-11-12T05:10:01;8.60;99.90
71155;DHT22;59375;53.216;5.728;2022-11-12T05:12:26;8.60;99.90
71155;DHT22;59375;53.216;5.728;2022-11-12T05:14:52;8.60;99.90
71155;DHT22;59375;53.216;5.728;2022-11-12T05:17:17;8.70;99.90
71155;DHT22;59375;53.216;5.728;2022-11-12T05:19:42;8.70;99.90
71155;DHT22;59375;53.216;5.728;2022-11-12T05:22:08;8.70;99.90
71155;DHT22;59375;53.216;5.728;2022-11-12T05:24:38;8.70;99.90
71155;DHT22;59375;53.216;5.728;2022-11-12T05:27:05;8.70;99.90
71155;DHT22;59375;53.216;5.728;2022-11-12T05:29:31;8.70;99.90
71155;DHT22;59375;53.216;5.728;2022-11-12T05:31:57;8.70;99.90
71155;DHT22;59375;53.216;5.728;2022-11-12T05:34:22;8.80;99.90
71155;DHT22;59375;53.216;5.728;2022-11-12T05:36:47;8.80;99.90
71155;DHT22;59375;53.216;5.728;2022-11-12T05:39:13;8.80;99.90
71155;DHT22;59375;53.216;5.728;2022-11-12T05:41:38;8.80;99.90
71155;DHT22;59375;53.216;5.728;2022-11-12T05:44:04;8.80;99.90
71155;DHT22;59375;53.216;5.728;2022-11-12T05:46:29;8.90;99.90
71155;DHT22;59375;53.216;5.728;2022-11-12T05:48:55;8.90;99.90
71155;DHT22;59375;53.216;5.728;2022-11-12T05:51:20;8.90;99.90
71155;DHT22;59375;53.216;5.728;2022-11-12T05:53:46;8.90;99.90
71155;DHT22;59375;53.216;5.728;2022-11-12T05:56:11;8.90;99.90
71155;DHT22;59375;53.216;5.728;2022-11-12T05:58:37;8.90;99.90
71155;DHT22;59375;53.216;5.728;2022-11-12T06:01:03;8.90;99.90
71155;DHT22;59375;53.216;5.728;2022-11-12T06:03:28;8.90;99.90
71155;DHT22;59375;53.216;5.728;2022-11-12T06:05:54;8.80;99.90
71155;DHT22;59375;53.216;5.728;2022-11-12T06:08:19;8.80;99.90
71155;DHT22;59375;53.216;5.728;2022-11-12T06:10:48;8.80;99.90
71155;DHT22;59375;53.216;5.728;2022-11-12T06:13:14;8.80;99.90
71155;DHT22;59375;53.216;5.728;2022-11-12T06:15:40;8.80;99.90
71155;DHT22;59375;53.216;5.728;2022-11-12T06:18:05;8.80;99.90
71155;DHT22;59375;53.216;5.728;2022-11-12T06:20:31;8.80;99.90
71155;DHT22;59375;53.216;5.728;2022-11-12T06:22:56;8.80;99.90
71155;DHT22;59375;53.216;5.728;2022-11-12T06:25:22;8.80;99.90
71155;DHT22;59375;53.216;5.728;2022-11-12T06:27:47;8.90;99.90
71155;DHT22;59375;53.216;5.728;2022-11-12T06:30:13;8.90;99.90
71155;DHT22;59375;53.216;5.728;2022-11-12T06:32:38;8.80;99.90
71155;DHT22;59375;53.216;5.728;2022-11-12T06:35:04;8.90;99.90
71155;DHT22;59375;53.216;5.728;2022-11-12T06:37:29;8.80;99.90
71155;DHT22;59375;53.216;5.728;2022-11-12T06:39:55;8.90;99.90
71155;DHT22;59375;53.216;5.728;2022-11-12T06:42:20;8.90;99.90
71155;DHT22;59375;53.216;5.728;2022-11-12T06:44:46;8.90;99.90
71155;DHT22;59375;53.216;5.728;2022-11-12T06:47:11;8.80;99.90
71155;DHT22;59375;53.216;5.728;2022-11-12T06:49:36;8.90;99.90
71155;DHT22;59375;53.216;5.728;2022-11-12T06:52:02;8.80;99.90
71155;DHT22;59375;53.216;5.728;2022-11-12T06:54:27;8.80;99.90
71155;DHT22;59375;53.216;5.728;2022-11-12T06:56:53;8.90;99.90
71155;DHT22;59375;53.216;5.728;2022-11-12T06:59:18;8.90;99.90
71155;DHT22;59375;53.216;5.728;2022-11-12T07:01:44;8.80;99.90
71155;DHT22;59375;53.216;5.728;2022-11-12T07:04:09;8.80;99.90
71155;DHT22;59375;53.216;5.728;2022-11-12T07:06:35;8.90;99.90
71155;DHT22;59375;53.216;5.728;2022-11-12T07:09:00;8.90;99.90
71155;DHT22;59375;53.216;5.728;2022-11-12T07:11:26;8.80;99.90
71155;DHT22;59375;53.216;5.728;2022-11-12T07:13:51;8.80;99.90
71155;DHT22;59375;53.216;5.728;2022-11-12T07:16:17;8.80;99.90
71155;DHT22;59375;53.216;5.728;2022-11-12T07:18:43;8.80;99.90
71155;DHT22;59375;53.216;5.728;2022-11-12T07:21:09;8.80;99.90
71155;DHT22;59375;53.216;5.728;2022-11-12T07:23:35;8.80;99.90
71155;DHT22;59375;53.216;5.728;2022-11-12T07:26:02;8.80;99.90
71155;DHT22;59375;53.216;5.728;2022-11-12T07:28:28;8.80;99.90
71155;DHT22;59375;53.216;5.728;2022-11-12T07:30:54;8.80;99.90
71155;DHT22;59375;53.216;5.728;2022-11-12T07:33:20;8.90;99.90
71155;DHT22;59375;53.216;5.728;2022-11-12T07:35:45;8.90;99.90
71155;DHT22;59375;53.216;5.728;2022-11-12T07:38:11;8.90;99.90
71155;DHT22;59375;53.216;5.728;2022-11-12T07:40:36;8.90;99.90
71155;DHT22;59375;53.216;5.728;2022-11-12T07:43:02;8.90;99.90
71155;DHT22;59375;53.216;5.728;2022-11-12T07:45:27;8.90;99.90
71155;DHT22;59375;53.216;5.728;2022-11-12T07:47:52;8.90;99.90
71155;DHT22;59375;53.216;5.728;2022-11-12T07:50:18;8.90;99.90
71155;DHT22;59375;53.216;5.728;2022-11-12T07:52:43;8.90;99.90
71155;DHT22;59375;53.216;5.728;2022-11-12T07:55:09;8.90;99.90
71155;DHT22;59375;53.216;5.728;2022-11-12T07:57:34;8.90;99.90
71155;DHT22;59375;53.216;5.728;2022-11-12T08:00:00;8.90;99.90
71155;DHT22;59375;53.216;5.728;2022-11-12T08:02:25;8.90;99.90
71155;DHT22;59375;53.216;5.728;2022-11-12T08:04:51;8.90;99.90
71155;DHT22;59375;53.216;5.728;2022-11-12T08:07:16;8.90;99.90
71155;DHT22;59375;53.216;5.728;2022-11-12T08:09:42;8.90;99.90
71155;DHT22;59375;53.216;5.728;2022-11-12T08:12:08;8.90;99.90
71155;DHT22;59375;53.216;5.728;2022-11-12T08:14:33;8.90;99.90
71155;DHT22;59375;53.216;5.728;2022-11-12T08:16:59;8.90;99.90
71155;DHT22;59375;53.216;5.728;2022-11-12T08:19:24;8.90;99.90
71155;DHT22;59375;53.216;5.728;2022-11-12T08:21:50;8.90;99.90
71155;DHT22;59375;53.216;5.728;2022-11-12T08:24:15;8.90;99.90
71155;DHT22;59375;53.216;5.728;2022-11-12T08:26:41;8.90;99.90
71155;DHT22;59375;53.216;5.728;2022-11-12T08:29:06;8.90;99.90
71155;DHT22;59375;53.216;5.728;2022-11-12T08:31:31;8.80;99.90
71155;DHT22;59375;53.216;5.728;2022-11-12T08:33:57;8.80;99.90
71155;DHT22;59375;53.216;5.728;2022-11-12T08:36:22;8.80;99.90
71155;DHT22;59375;53.216;5.728;2022-11-12T08:38:49;8.80;99.90
71155;DHT22;59375;53.216;5.728;2022-11-12T08:41:16;8.90;99.90
71155;DHT22;59375;53.216;5.728;2022-11-12T08:43:41;8.80;99.90
71155;DHT22;59375;53.216;5.728;2022-11-12T08:46:07;8.80;99.90
71155;DHT22;59375;53.216;5.728;2022-11-12T08:48:33;8.80;99.90
71155;DHT22;59375;53.216;5.728;2022-11-12T08:51:02;8.80;99.90
71155;DHT22;59375;53.216;5.728;2022-11-12T08:53:28;8.80;99.90
71155;DHT22;59375;53.216;5.728;2022-11-12T08:55:54;8.80;99.90
71155;DHT22;59375;53.216;5.728;2022-11-12T08:58:19;8.80;99.90
71155;DHT22;59375;53.216;5.728;2022-11-12T09:00:45;8.80;99.90
71155;DHT22;59375;53.216;5.728;2022-11-12T09:03:14;8.80;99.90
71155;DHT22;59375;53.216;5.728;2022-11-12T09:05:40;8.80;99.90
71155;DHT22;59375;53.216;5.728;2022-11-12T09:08:07;8.70;99.90
71155;DHT22;59375;53.216;5.728;2022-11-12T09:10:33;8.70;99.90
71155;DHT22;59375;53.216;5.728;2022-11-12T09:12:59;8.70;99.90
71155;DHT22;59375;53.216;5.728;2022-11-12T09:15:25;8.80;99.90
71155;DHT22;59375;53.216;5.728;2022-11-12T09:17:57;8.70;99.90
71155;DHT22;59375;53.216;5.728;2022-11-12T09:20:23;8.70;99.90
71155;DHT22;59375;53.216;5.728;2022-11-12T09:22:49;8.70;99.90
71155;DHT22;59375;53.216;5.728;2022-11-12T09:25:15;8.80;99.90
71155;DHT22;59375;53.216;5.728;2022-11-12T09:27:40;8.70;99.90
71155;DHT22;59375;53.216;5.728;2022-11-12T09:30:06;8.80;99.90
71155;DHT22;59375;53.216;5.728;2022-11-12T09:32:31;8.70;99.90
71155;DHT22;59375;53.216;5.728;2022-11-12T09:34:57;8.80;99.90
71155;DHT22;59375;53.216;5.728;2022-11-12T09:37:22;8.80;99.90
71155;DHT22;59375;53.216;5.728;2022-11-12T09:39:48;8.80;99.90
71155;DHT22;59375;53.216;5.728;2022-11-12T09:42:14;8.80;99.90
71155;DHT22;59375;53.216;5.728;2022-11-12T09:44:41;8.70;99.90
71155;DHT22;59375;53.216;5.728;2022-11-12T09:47:25;8.70;99.90
71155;DHT22;59375;53.216;5.728;2022-11-12T09:52:21;8.60;99.90
71155;DHT22;59375;53.216;5.728;2022-11-12T09:54:49;8.60;99.90
71155;DHT22;59375;53.216;5.728;2022-11-12T09:57:16;8.60;99.90
71155;DHT22;59375;53.216;5.728;2022-11-12T09:59:41;8.50;99.90
71155;DHT22;59375;53.216;5.728;2022-11-12T10:02:25;8.50;99.90
71155;DHT22;59375;53.216;5.728;2022-11-12T10:09:58;8.50;99.90
71155;DHT22;59375;53.216;5.728;2022-11-12T10:12:27;8.50;99.90
71155;DHT22;59375;53.216;5.728;2022-11-12T10:15:17;8.60;99.90
71155;DHT22;59375;53.216;5.728;2022-11-12T10:18:07;8.80;99.90
71155;DHT22;59375;53.216;5.728;2022-11-12T10:20:40;8.90;99.90
71155;DHT22;59375;53.216;5.728;2022-11-12T10:23:26;8.70;99.90
71155;DHT22;59375;53.216;5.728;2022-11-12T10:25:54;8.70;99.90
71155;DHT22;59375;53.216;5.728;2022-11-12T10:28:28;8.70;99.90
71155;DHT22;59375;53.216;5.728;2022-11-12T10:30:54;8.60;99.90
71155;DHT22;59375;53.216;5.728;2022-11-12T10:33:21;8.60;99.90
71155;DHT22;59375;53.216;5.728;2022-11-12T10:35:47;8.60;99.90
71155;DHT22;59375;53.216;5.728;2022-11-12T10:38:13;8.60;99.90
71155;DHT22;59375;53.216;5.728;2022-11-12T10:40:40;8.60;99.90
71155;DHT22;59375;53.216;5.728;2022-11-12T10:45:40;8.60;99.90
71155;DHT22;59375;53.216;5.728;2022-11-12T10:48:25;8.60;99.90
71155;DHT22;59375;53.216;5.728;2022-11-12T10:50:56;8.60;99.90
71155;DHT22;59375;53.216;5.728;2022-11-12T10:53:34;8.60;99.90
71155;DHT22;59375;53.216;5.728;2022-11-12T10:56:01;8.60;99.90
71155;DHT22;59375;53.216;5.728;2022-11-12T10:58:27;8.60;99.90
71155;DHT22;59375;53.216;5.728;2022-11-12T11:00:54;8.60;99.90
71155;DHT22;59375;53.216;5.728;2022-11-12T11:03:21;8.70;99.90
71155;DHT22;59375;53.216;5.728;2022-11-12T11:05:49;8.70;99.90
71155;DHT22;59375;53.216;5.728;2022-11-12T11:08:15;8.60;99.90
71155;DHT22;59375;53.216;5.728;2022-11-12T11:11:10;8.60;99.90
71155;DHT22;59375;53.216;5.728;2022-11-12T11:13:35;8.60;99.90
71155;DHT22;59375;53.216;5.728;2022-11-12T11:16:02;8.60;99.90
71155;DHT22;59375;53.216;5.728;2022-11-12T11:18:36;8.50;99.90
71155;DHT22;59375;53.216;5.728;2022-11-12T11:23:55;8.50;99.90
71155;DHT22;59375;53.216;5.728;2022-11-12T11:29:13;8.40;99.90
71155;DHT22;59375;53.216;5.728;2022-11-12T11:31:46;8.50;99.90
71155;DHT22;59375;53.216;5.728;2022-11-12T11:34:32;8.50;99.90
71155;DHT22;59375;53.216;5.728;2022-11-12T11:39:41;9.00;99.90
71155;DHT22;59375;53.216;5.728;2022-11-12T11:45:00;9.10;99.90
71155;DHT22;59375;53.216;5.728;2022-11-12T11:52:43;9.10;99.90
71155;DHT22;59375;53.216;5.728;2022-11-12T12:00:10;9.00;99.90
71155;DHT22;59375;53.216;5.728;2022-11-12T12:02:45;9.00;99.90
71155;DHT22;59375;53.216;5.728;2022-11-12T12:05:35;9.10;99.90
71155;DHT22;59375;53.216;5.728;2022-11-12T12:08:03;9.10;99.90
71155;DHT22;59375;53.216;5.728;2022-11-12T12:10:41;9.10;99.90
71155;DHT22;59375;53.216;5.728;2022-11-12T12:13:11;9.20;99.90
71155;DHT22;59375;53.216;5.728;2022-11-12T12:20:36;9.30;99.90
71155;DHT22;59375;53.216;5.728;2022-11-12T12:23:09;9.30;99.90
71155;DHT22;59375;53.216;5.728;2022-11-12T12:25:38;9.40;99.90
71155;DHT22;59375;53.216;5.728;2022-11-12T12:30:38;9.50;99.90
71155;DHT22;59375;53.216;5.728;2022-11-12T12:35:53;9.60;99.90
71155;DHT22;59375;53.216;5.728;2022-11-12T12:38:22;9.50;99.90
71155;DHT22;59375;53.216;5.728;2022-11-12T12:40:54;9.60;99.90
71155;DHT22;59375;53.216;5.728;2022-11-12T12:45:51;9.60;99.90
71155;DHT22;59375;53.216;5.728;2022-11-12T12:48:19;9.60;99.90
71155;DHT22;59375;53.216;5.728;2022-11-12T12:50:45;9.70;99.90
71155;DHT22;59375;53.216;5.728;2022-11-12T12:55:38;9.80;99.90
71155;DHT22;59375;53.216;5.728;2022-11-12T12:58:04;9.90;99.90
71155;DHT22;59375;53.216;5.728;2022-11-12T13:00:36;10.00;99.90
71155;DHT22;59375;53.216;5.728;2022-11-12T13:05:37;10.20;99.90
71155;DHT22;59375;53.216;5.728;2022-11-12T13:08:12;10.20;99.90
71155;DHT22;59375;53.216;5.728;2022-11-12T13:15:42;10.50;99.90
71155;DHT22;59375;53.216;5.728;2022-11-12T13:30:06;10.40;99.90
71155;DHT22;59375;53.216;5.728;2022-11-12T13:37:44;10.40;99.90
71155;DHT22;59375;53.216;5.728;2022-11-12T13:40:12;10.50;99.90
71155;DHT22;59375;53.216;5.728;2022-11-12T13:42:38;10.50;99.90
71155;DHT22;59375;53.216;5.728;2022-11-12T13:45:23;10.60;99.90
71155;DHT22;59375;53.216;5.728;2022-11-12T13:47:50;10.60;99.90
71155;DHT22;59375;53.216;5.728;2022-11-12T13:50:16;10.60;99.90
71155;DHT22;59375;53.216;5.728;2022-11-12T13:52:43;10.50;99.90
71155;DHT22;59375;53.216;5.728;2022-11-12T13:55:13;10.50;99.90
71155;DHT22;59375;53.216;5.728;2022-11-12T13:57:39;10.60;99.90
71155;DHT22;59375;53.216;5.728;2022-11-12T14:02:47;10.60;99.90
71155;DHT22;59375;53.216;5.728;2022-11-12T14:05:14;10.60;99.90
71155;DHT22;59375;53.216;5.728;2022-11-12T14:18:20;10.10;99.90
71155;DHT22;59375;53.216;5.728;2022-11-12T14:20:48;10.00;99.90
71155;DHT22;59375;53.216;5.728;2022-11-12T14:23:18;10.00;99.90
71155;DHT22;59375;53.216;5.728;2022-11-12T14:25:45;10.00;99.90
71155;DHT22;59375;53.216;5.728;2022-11-12T14:30:52;9.80;99.90
71155;DHT22;59375;53.216;5.728;2022-11-12T14:33:19;9.80;99.90
71155;DHT22;59375;53.216;5.728;2022-11-12T14:35:45;9.70;99.90
71155;DHT22;59375;53.216;5.728;2022-11-12T14:40:37;9.50;99.90
71155;DHT22;59375;53.216;5.728;2022-11-12T14:43:12;9.50;99.90
71155;DHT22;59375;53.216;5.728;2022-11-12T14:45:45;9.50;99.90
71155;DHT22;59375;53.216;5.728;2022-11-12T14:48:12;9.40;99.90
71155;DHT22;59375;53.216;5.728;2022-11-12T14:50:38;9.30;99.90
71155;DHT22;59375;53.216;5.728;2022-11-12T14:53:10;9.30;99.90
71155;DHT22;59375;53.216;5.728;2022-11-12T14:55:39;9.30;99.90
71155;DHT22;59375;53.216;5.728;2022-11-12T14:58:06;9.30;99.90
71155;DHT22;59375;53.216;5.728;2022-11-12T15:02:57;9.20;99.90
71155;DHT22;59375;53.216;5.728;2022-11-12T15:05:23;9.20;99.90
71155;DHT22;59375;53.216;5.728;2022-11-12T15:08:10;9.10;99.90
71155;DHT22;59375;53.216;5.728;2022-11-12T15:10:35;9.10;99.90
71155;DHT22;59375;53.216;5.728;2022-11-12T15:13:02;9.00;99.90
71155;DHT22;59375;53.216;5.728;2022-11-12T15:15:28;8.90;99.90
71155;DHT22;59375;53.216;5.728;2022-11-12T15:17:58;9.00;99.90
71155;DHT22;59375;53.216;5.728;2022-11-12T15:20:24;9.00;99.90
71155;DHT22;59375;53.216;5.728;2022-11-12T15:22:51;8.90;99.90
71155;DHT22;59375;53.216;5.728;2022-11-12T15:25:18;8.90;99.90
71155;DHT22;59375;53.216;5.728;2022-11-12T15:27:45;8.90;99.90
71155;DHT22;59375;53.216;5.728;2022-11-12T15:30:13;8.90;99.90
71155;DHT22;59375;53.216;5.728;2022-11-12T15:32:40;8.90;99.90
71155;DHT22;59375;53.216;5.728;2022-11-12T15:35:19;8.80;99.90
71155;DHT22;59375;53.216;5.728;2022-11-12T15:37:44;8.80;99.90
71155;DHT22;59375;53.216;5.728;2022-11-12T15:40:17;8.80;99.90
71155;DHT22;59375;53.216;5.728;2022-11-12T15:42:42;8.70;99.90
71155;DHT22;59375;53.216;5.728;2022-11-12T15:47:34;8.60;99.90
71155;DHT22;59375;53.216;5.728;2022-11-12T15:49:59;8.50;99.90
71155;DHT22;59375;53.216;5.728;2022-11-12T15:52:31;8.50;99.90
71155;DHT22;59375;53.216;5.728;2022-11-12T15:54:57;8.50;99.90
71155;DHT22;59375;53.216;5.728;2022-11-12T15:57:24;8.50;99.90
71155;DHT22;59375;53.216;5.728;2022-11-12T16:00:32;8.40;99.90
71155;DHT22;59375;53.216;5.728;2022-11-12T16:02:38;8.40;99.90
71155;DHT22;59375;53.216;5.728;2022-11-12T16:05:04;8.40;99.90
71155;DHT22;59375;53.216;5.728;2022-11-12T16:07:30;8.30;99.90
71155;DHT22;59375;53.216;5.728;2022-11-12T16:09:56;8.30;99.90
71155;DHT22;59375;53.216;5.728;2022-11-12T16:12:21;8.30;99.90
71155;DHT22;59375;53.216;5.728;2022-11-12T16:14:46;8.20;99.90
71155;DHT22;59375;53.216;5.728;2022-11-12T16:17:13;8.20;99.90
71155;DHT22;59375;53.216;5.728;2022-11-12T16:19:39;8.10;99.90
71155;DHT22;59375;53.216;5.728;2022-11-12T16:22:04;8.10;99.90
71155;DHT22;59375;53.216;5.728;2022-11-12T16:24:40;8.00;99.90
71155;DHT22;59375;53.216;5.728;2022-11-12T16:27:06;8.00;99.90
71155;DHT22;59375;53.216;5.728;2022-11-12T16:29:34;7.90;99.90
71155;DHT22;59375;53.216;5.728;2022-11-12T16:32:00;7.90;99.90
71155;DHT22;59375;53.216;5.728;2022-11-12T16:34:25;7.90;99.90
71155;DHT22;59375;53.216;5.728;2022-11-12T16:36:51;7.80;99.90
71155;DHT22;59375;53.216;5.728;2022-11-12T16:39:16;7.60;99.90
71155;DHT22;59375;53.216;5.728;2022-11-12T16:41:42;7.50;99.90
71155;DHT22;59375;53.216;5.728;2022-11-12T16:44:07;7.20;99.90
71155;DHT22;59375;53.216;5.728;2022-11-12T16:46:34;7.10;99.90
71155;DHT22;59375;53.216;5.728;2022-11-12T16:49:03;7.20;99.90
71155;DHT22;59375;53.216;5.728;2022-11-12T16:51:28;7.20;99.90
71155;DHT22;59375;53.216;5.728;2022-11-12T16:53:54;7.30;99.90
71155;DHT22;59375;53.216;5.728;2022-11-12T16:56:20;7.30;99.90
71155;DHT22;59375;53.216;5.728;2022-11-12T16:58:47;7.30;99.90
71155;DHT22;59375;53.216;5.728;2022-11-12T17:01:13;7.30;99.90
71155;DHT22;59375;53.216;5.728;2022-11-12T17:03:40;7.30;99.90
71155;DHT22;59375;53.216;5.728;2022-11-12T17:06:05;7.20;99.90
71155;DHT22;59375;53.216;5.728;2022-11-12T17:08:30;7.10;99.90
71155;DHT22;59375;53.216;5.728;2022-11-12T17:10:56;7.00;99.90
71155;DHT22;59375;53.216;5.728;2022-11-12T17:13:21;7.00;99.90
71155;DHT22;59375;53.216;5.728;2022-11-12T17:15:47;7.10;99.90
71155;DHT22;59375;53.216;5.728;2022-11-12T17:18:13;7.20;99.90
71155;DHT22;59375;53.216;5.728;2022-11-12T17:20:38;7.30;99.90
71155;DHT22;59375;53.216;5.728;2022-11-12T17:23:04;7.30;99.90
71155;DHT22;59375;53.216;5.728;2022-11-12T17:25:29;7.30;99.90
71155;DHT22;59375;53.216;5.728;2022-11-12T17:27:55;7.30;99.90
71155;DHT22;59375;53.216;5.728;2022-11-12T17:30:20;7.40;99.90